sensor_id;sensor_type;location;lat;lon;timestamp;P1;durP1;ratioP1;P2;durP2;ratioP2
70967;SDS011;58629;48.808;8.820;2022-10-16T00:01:04;2.60;;;1.13;;
70967;SDS011;58629;48.808;8.820;2022-10-16T00:03:40;1.40;;;0.97;;
70967;SDS011;58629;48.808;8.820;2022-10-16T00:06:07;1.38;;;0.77;;
70967;SDS011;58629;48.808;8.820;2022-10-16T00:08:33;0.82;;;0.70;;
70967;SDS011;58629;48.808;8.820;2022-10-16T00:11:04;1.30;;;0.75;;
70967;SDS011;58629;48.808;8.820;2022-10-16T00:13:34;1.55;;;0.70;;
70967;SDS011;58629;48.808;8.820;2022-10-16T00:16:01;1.20;;;0.80;;
70967;SDS011;58629;48.808;8.820;2022-10-16T00:18:27;0.80;;;0.80;;
70967;SDS011;58629;48.808;8.820;2022-10-16T00:20:53;1.92;;;0.82;;
70967;SDS011;58629;48.808;8.820;2022-10-16T00:23:20;1.20;;;0.80;;
70967;SDS011;58629;48.808;8.820;2022-10-16T00:25:53;0.73;;;0.70;;
70967;SDS011;58629;48.808;8.820;2022-10-16T00:28:20;1.10;;;0.80;;
70967;SDS011;58629;48.808;8.820;2022-10-16T00:30:46;1.33;;;0.80;;
70967;SDS011;58629;48.808;8.820;2022-10-16T00:33:11;1.00;;;0.80;;
70967;SDS011;58629;48.808;8.820;2022-10-16T00:35:36;0.90;;;0.70;;
70967;SDS011;58629;48.808;8.820;2022-10-16T00:38:02;1.52;;;0.80;;
70967;SDS011;58629;48.808;8.820;2022-10-16T00:40:27;0.98;;;0.60;;
70967;SDS011;58629;48.808;8.820;2022-10-16T00:42:53;1.08;;;0.80;;
70967;SDS011;58629;48.808;8.820;2022-10-16T00:45:18;0.60;;;0.60;;
70967;SDS011;58629;48.808;8.820;2022-10-16T00:47:43;0.63;;;0.50;;
70967;SDS011;58629;48.808;8.820;2022-10-16T00:50:27;0.85;;;0.77;;
70967;SDS011;58629;48.808;8.820;2022-10-16T00:52:58;1.67;;;0.70;;
70967;SDS011;58629;48.808;8.820;2022-10-16T00:55:25;1.20;;;0.80;;
70967;SDS011;58629;48.808;8.820;2022-10-16T00:57:52;2.05;;;0.70;;
70967;SDS011;58629;48.808;8.820;2022-10-16T01:00:20;2.33;;;0.60;;
70967;SDS011;58629;48.808;8.820;2022-10-16T01:02:57;0.90;;;0.70;;
70967;SDS011;58629;48.808;8.820;2022-10-16T01:05:32;3.15;;;0.80;;
70967;SDS011;58629;48.808;8.820;2022-10-16T01:08:08;0.52;;;0.52;;
70967;SDS011;58629;48.808;8.820;2022-10-16T01:10:50;1.02;;;0.60;;
70967;SDS011;58629;48.808;8.820;2022-10-16T01:13:33;1.58;;;0.60;;
70967;SDS011;58629;48.808;8.820;2022-10-16T01:16:05;0.90;;;0.70;;
70967;SDS011;58629;48.808;8.820;2022-10-16T01:18:39;1.13;;;0.80;;
70967;SDS011;58629;48.808;8.820;2022-10-16T01:21:10;0.85;;;0.80;;
70967;SDS011;58629;48.808;8.820;2022-10-16T01:29:22;1.00;;;0.60;;
70967;SDS011;58629;48.808;8.820;2022-10-16T01:31:53;0.93;;;0.60;;
70967;SDS011;58629;48.808;8.820;2022-10-16T01:34:25;1.17;;;0.50;;
70967;SDS011;58629;48.808;8.820;2022-10-16T01:37:14;0.70;;;0.50;;
70967;SDS011;58629;48.808;8.820;2022-10-16T01:39:47;1.00;;;0.52;;
70967;SDS011;58629;48.808;8.820;2022-10-16T01:42:20;0.60;;;0.50;;
70967;SDS011;58629;48.808;8.820;2022-10-16T01:44:49;0.40;;;0.40;;
70967;SDS011;58629;48.808;8.820;2022-10-16T01:47:17;0.52;;;0.43;;
70967;SDS011;58629;48.808;8.820;2022-10-16T01:49:47;0.65;;;0.40;;
70967;SDS011;58629;48.808;8.820;2022-10-16T01:52:14;0.77;;;0.50;;
70967;SDS011;58629;48.808;8.820;2022-10-16T01:54:43;0.52;;;0.30;;
70967;SDS011;58629;48.808;8.820;2022-10-16T01:57:12;0.40;;;0.40;;
70967;SDS011;58629;48.808;8.820;2022-10-16T01:59:44;0.45;;;0.30;;
70967;SDS011;58629;48.808;8.820;2022-10-16T02:02:12;0.50;;;0.30;;
70967;SDS011;58629;48.808;8.820;2022-10-16T02:04:44;0.35;;;0.35;;
70967;SDS011;58629;48.808;8.820;2022-10-16T02:07:12;0.45;;;0.40;;
70967;SDS011;58629;48.808;8.820;2022-10-16T02:09:38;0.50;;;0.30;;
70967;SDS011;58629;48.808;8.820;2022-10-16T02:12:06;1.23;;;0.40;;
70967;SDS011;58629;48.808;8.820;2022-10-16T02:14:37;0.50;;;0.40;;
70967;SDS011;58629;48.808;8.820;2022-10-16T02:17:13;0.60;;;0.43;;
70967;SDS011;58629;48.808;8.820;2022-10-16T02:19:40;0.60;;;0.52;;
70967;SDS011;58629;48.808;8.820;2022-10-16T02:22:06;0.60;;;0.57;;
70967;SDS011;58629;48.808;8.820;2022-10-16T02:27:17;0.73;;;0.50;;
70967;SDS011;58629;48.808;8.820;2022-10-16T02:29:53;0.77;;;0.60;;
70967;SDS011;58629;48.808;8.820;2022-10-16T02:32:24;0.70;;;0.40;;
70967;SDS011;58629;48.808;8.820;2022-10-16T02:34:55;0.40;;;0.40;;
70967;SDS011;58629;48.808;8.820;2022-10-16T02:37:22;0.82;;;0.60;;
70967;SDS011;58629;48.808;8.820;2022-10-16T02:39:48;0.50;;;0.50;;
70967;SDS011;58629;48.808;8.820;2022-10-16T02:42:13;0.40;;;0.40;;
70967;SDS011;58629;48.808;8.820;2022-10-16T02:44:39;0.77;;;0.60;;
70967;SDS011;58629;48.808;8.820;2022-10-16T02:47:05;0.80;;;0.70;;
70967;SDS011;58629;48.808;8.820;2022-10-16T02:49:30;0.82;;;0.47;;
70967;SDS011;58629;48.808;8.820;2022-10-16T02:51:55;0.43;;;0.33;;
70967;SDS011;58629;48.808;8.820;2022-10-16T02:54:21;0.47;;;0.40;;
70967;SDS011;58629;48.808;8.820;2022-10-16T02:56:46;0.57;;;0.43;;
70967;SDS011;58629;48.808;8.820;2022-10-16T02:59:11;0.60;;;0.30;;
70967;SDS011;58629;48.808;8.820;2022-10-16T03:01:36;0.60;;;0.50;;
70967;SDS011;58629;48.808;8.820;2022-10-16T03:04:02;0.50;;;0.47;;
70967;SDS011;58629;48.808;8.820;2022-10-16T03:06:27;0.50;;;0.40;;
70967;SDS011;58629;48.808;8.820;2022-10-16T03:08:52;0.77;;;0.60;;
70967;SDS011;58629;48.808;8.820;2022-10-16T03:11:18;0.47;;;0.47;;
70967;SDS011;58629;48.808;8.820;2022-10-16T03:13:43;0.40;;;0.30;;
70967;SDS011;58629;48.808;8.820;2022-10-16T03:16:08;1.73;;;0.60;;
70967;SDS011;58629;48.808;8.820;2022-10-16T03:18:33;0.50;;;0.40;;
70967;SDS011;58629;48.808;8.820;2022-10-16T03:20:59;0.50;;;0.40;;
70967;SDS011;58629;48.808;8.820;2022-10-16T03:23:24;0.40;;;0.30;;
70967;SDS011;58629;48.808;8.820;2022-10-16T03:25:49;0.40;;;0.30;;
70967;SDS011;58629;48.808;8.820;2022-10-16T03:28:14;0.43;;;0.40;;
70967;SDS011;58629;48.808;8.820;2022-10-16T03:30:40;0.37;;;0.30;;
70967;SDS011;58629;48.808;8.820;2022-10-16T03:33:05;1.00;;;0.90;;
70967;SDS011;58629;48.808;8.820;2022-10-16T03:35:31;0.70;;;0.60;;
70967;SDS011;58629;48.808;8.820;2022-10-16T03:37:57;0.70;;;0.60;;
70967;SDS011;58629;48.808;8.820;2022-10-16T03:40:23;1.10;;;0.60;;
70967;SDS011;58629;48.808;8.820;2022-10-16T03:42:48;0.87;;;0.50;;
70967;SDS011;58629;48.808;8.820;2022-10-16T03:45:13;0.40;;;0.40;;
70967;SDS011;58629;48.808;8.820;2022-10-16T03:47:39;0.50;;;0.40;;
70967;SDS011;58629;48.808;8.820;2022-10-16T03:50:04;0.90;;;0.70;;
70967;SDS011;58629;48.808;8.820;2022-10-16T03:52:30;0.80;;;0.70;;
70967;SDS011;58629;48.808;8.820;2022-10-16T03:54:56;0.98;;;0.85;;
70967;SDS011;58629;48.808;8.820;2022-10-16T03:57:22;1.02;;;0.90;;
70967;SDS011;58629;48.808;8.820;2022-10-16T03:59:47;1.48;;;0.98;;
70967;SDS011;58629;48.808;8.820;2022-10-16T04:02:13;1.30;;;1.10;;
70967;SDS011;58629;48.808;8.820;2022-10-16T04:04:38;1.30;;;1.10;;
70967;SDS011;58629;48.808;8.820;2022-10-16T04:07:03;2.67;;;1.20;;
70967;SDS011;58629;48.808;8.820;2022-10-16T04:09:29;1.30;;;1.00;;
70967;SDS011;58629;48.808;8.820;2022-10-16T04:11:54;1.10;;;0.97;;
70967;SDS011;58629;48.808;8.820;2022-10-16T04:14:19;2.43;;;1.13;;
70967;SDS011;58629;48.808;8.820;2022-10-16T04:16:44;1.13;;;0.80;;
70967;SDS011;58629;48.808;8.820;2022-10-16T04:19:10;1.60;;;1.10;;
70967;SDS011;58629;48.808;8.820;2022-10-16T04:21:35;1.80;;;1.30;;
70967;SDS011;58629;48.808;8.820;2022-10-16T04:24:01;1.92;;;1.25;;
70967;SDS011;58629;48.808;8.820;2022-10-16T04:26:26;2.13;;;1.20;;
70967;SDS011;58629;48.808;8.820;2022-10-16T04:28:51;2.50;;;1.10;;
70967;SDS011;58629;48.808;8.820;2022-10-16T04:31:17;2.37;;;1.20;;
70967;SDS011;58629;48.808;8.820;2022-10-16T04:33:42;1.47;;;1.20;;
70967;SDS011;58629;48.808;8.820;2022-10-16T04:36:08;1.30;;;1.00;;
70967;SDS011;58629;48.808;8.820;2022-10-16T04:38:34;1.10;;;0.90;;
70967;SDS011;58629;48.808;8.820;2022-10-16T04:40:59;1.05;;;0.80;;
70967;SDS011;58629;48.808;8.820;2022-10-16T04:43:25;1.67;;;0.95;;
70967;SDS011;58629;48.808;8.820;2022-10-16T04:45:50;1.87;;;0.90;;
70967;SDS011;58629;48.808;8.820;2022-10-16T04:48:16;1.13;;;0.70;;
70967;SDS011;58629;48.808;8.820;2022-10-16T04:50:42;0.97;;;0.87;;
70967;SDS011;58629;48.808;8.820;2022-10-16T04:53:07;1.20;;;1.00;;
70967;SDS011;58629;48.808;8.820;2022-10-16T04:55:32;0.70;;;0.70;;
70967;SDS011;58629;48.808;8.820;2022-10-16T04:57:58;0.95;;;0.80;;
70967;SDS011;58629;48.808;8.820;2022-10-16T05:00:23;1.40;;;0.80;;
70967;SDS011;58629;48.808;8.820;2022-10-16T05:02:51;2.20;;;1.20;;
70967;SDS011;58629;48.808;8.820;2022-10-16T05:05:17;2.10;;;1.00;;
70967;SDS011;58629;48.808;8.820;2022-10-16T05:07:44;2.05;;;1.10;;
70967;SDS011;58629;48.808;8.820;2022-10-16T05:10:10;1.23;;;1.10;;
70967;SDS011;58629;48.808;8.820;2022-10-16T05:12:35;1.90;;;1.03;;
70967;SDS011;58629;48.808;8.820;2022-10-16T05:15:00;1.40;;;1.13;;
70967;SDS011;58629;48.808;8.820;2022-10-16T05:17:26;1.30;;;1.10;;
70967;SDS011;58629;48.808;8.820;2022-10-16T05:19:51;3.25;;;1.23;;
70967;SDS011;58629;48.808;8.820;2022-10-16T05:22:17;1.80;;;0.80;;
70967;SDS011;58629;48.808;8.820;2022-10-16T05:24:43;1.30;;;1.05;;
70967;SDS011;58629;48.808;8.820;2022-10-16T05:27:08;1.73;;;1.23;;
70967;SDS011;58629;48.808;8.820;2022-10-16T05:29:33;1.37;;;1.20;;
70967;SDS011;58629;48.808;8.820;2022-10-16T05:31:58;1.40;;;1.00;;
70967;SDS011;58629;48.808;8.820;2022-10-16T05:34:24;1.20;;;0.90;;
70967;SDS011;58629;48.808;8.820;2022-10-16T05:36:49;1.00;;;0.90;;
70967;SDS011;58629;48.808;8.820;2022-10-16T05:39:15;0.90;;;0.80;;
70967;SDS011;58629;48.808;8.820;2022-10-16T05:41:41;0.60;;;0.52;;
70967;SDS011;58629;48.808;8.820;2022-10-16T05:44:07;0.90;;;0.70;;
70967;SDS011;58629;48.808;8.820;2022-10-16T05:46:32;0.90;;;0.70;;
70967;SDS011;58629;48.808;8.820;2022-10-16T05:48:58;0.60;;;0.47;;
70967;SDS011;58629;48.808;8.820;2022-10-16T05:51:23;0.70;;;0.60;;
70967;SDS011;58629;48.808;8.820;2022-10-16T05:53:48;0.70;;;0.70;;
70967;SDS011;58629;48.808;8.820;2022-10-16T05:56:14;1.87;;;0.70;;
70967;SDS011;58629;48.808;8.820;2022-10-16T05:58:40;0.93;;;0.83;;
70967;SDS011;58629;48.808;8.820;2022-10-16T06:01:06;1.48;;;0.98;;
70967;SDS011;58629;48.808;8.820;2022-10-16T06:03:34;1.00;;;0.90;;
70967;SDS011;58629;48.808;8.820;2022-10-16T06:06:06;0.80;;;0.80;;
70967;SDS011;58629;48.808;8.820;2022-10-16T06:08:42;0.80;;;0.70;;
70967;SDS011;58629;48.808;8.820;2022-10-16T06:11:09;0.95;;;0.80;;
70967;SDS011;58629;48.808;8.820;2022-10-16T06:13:37;0.83;;;0.70;;
70967;SDS011;58629;48.808;8.820;2022-10-16T06:16:04;1.35;;;0.77;;
70967;SDS011;58629;48.808;8.820;2022-10-16T06:18:30;1.38;;;1.20;;
70967;SDS011;58629;48.808;8.820;2022-10-16T06:20:55;2.95;;;1.25;;
70967;SDS011;58629;48.808;8.820;2022-10-16T06:23:22;1.63;;;1.38;;
70967;SDS011;58629;48.808;8.820;2022-10-16T06:25:47;1.30;;;1.13;;
70967;SDS011;58629;48.808;8.820;2022-10-16T06:28:15;1.83;;;1.20;;
70967;SDS011;58629;48.808;8.820;2022-10-16T06:30:41;1.38;;;1.00;;
70967;SDS011;58629;48.808;8.820;2022-10-16T06:33:08;1.10;;;0.93;;
70967;SDS011;58629;48.808;8.820;2022-10-16T06:35:34;1.20;;;0.90;;
70967;SDS011;58629;48.808;8.820;2022-10-16T06:37:59;2.43;;;1.30;;
70967;SDS011;58629;48.808;8.820;2022-10-16T06:40:24;2.03;;;1.40;;
70967;SDS011;58629;48.808;8.820;2022-10-16T06:42:49;2.00;;;1.50;;
70967;SDS011;58629;48.808;8.820;2022-10-16T06:45:16;1.50;;;1.30;;
70967;SDS011;58629;48.808;8.820;2022-10-16T06:47:41;1.57;;;1.20;;
70967;SDS011;58629;48.808;8.820;2022-10-16T06:50:07;2.50;;;1.20;;
70967;SDS011;58629;48.808;8.820;2022-10-16T06:52:33;1.33;;;1.03;;
70967;SDS011;58629;48.808;8.820;2022-10-16T06:54:58;2.10;;;0.90;;
70967;SDS011;58629;48.808;8.820;2022-10-16T06:57:24;1.23;;;0.90;;
70967;SDS011;58629;48.808;8.820;2022-10-16T06:59:49;1.17;;;0.90;;
70967;SDS011;58629;48.808;8.820;2022-10-16T07:02:14;0.90;;;0.80;;
70967;SDS011;58629;48.808;8.820;2022-10-16T07:04:39;1.80;;;1.50;;
70967;SDS011;58629;48.808;8.820;2022-10-16T07:07:05;1.20;;;1.00;;
70967;SDS011;58629;48.808;8.820;2022-10-16T07:09:30;1.20;;;1.00;;
70967;SDS011;58629;48.808;8.820;2022-10-16T07:11:55;0.90;;;0.80;;
70967;SDS011;58629;48.808;8.820;2022-10-16T07:14:21;1.17;;;0.90;;
70967;SDS011;58629;48.808;8.820;2022-10-16T07:16:46;2.00;;;1.00;;
70967;SDS011;58629;48.808;8.820;2022-10-16T07:19:12;0.80;;;0.70;;
70967;SDS011;58629;48.808;8.820;2022-10-16T07:21:40;0.88;;;0.80;;
70967;SDS011;58629;48.808;8.820;2022-10-16T07:24:06;1.48;;;1.10;;
70967;SDS011;58629;48.808;8.820;2022-10-16T07:26:36;2.63;;;1.25;;
70967;SDS011;58629;48.808;8.820;2022-10-16T07:29:04;2.13;;;1.13;;
70967;SDS011;58629;48.808;8.820;2022-10-16T07:31:29;1.87;;;1.50;;
70967;SDS011;58629;48.808;8.820;2022-10-16T07:33:55;3.50;;;1.80;;
70967;SDS011;58629;48.808;8.820;2022-10-16T07:36:20;2.10;;;1.90;;
70967;SDS011;58629;48.808;8.820;2022-10-16T07:38:46;2.30;;;1.83;;
70967;SDS011;58629;48.808;8.820;2022-10-16T07:41:13;2.25;;;1.63;;
70967;SDS011;58629;48.808;8.820;2022-10-16T07:43:40;1.73;;;1.50;;
70967;SDS011;58629;48.808;8.820;2022-10-16T07:46:10;2.45;;;1.50;;
70967;SDS011;58629;48.808;8.820;2022-10-16T07:48:35;1.47;;;1.30;;
70967;SDS011;58629;48.808;8.820;2022-10-16T07:51:01;2.10;;;1.60;;
70967;SDS011;58629;48.808;8.820;2022-10-16T07:53:28;1.65;;;1.23;;
70967;SDS011;58629;48.808;8.820;2022-10-16T07:55:57;2.07;;;1.50;;
70967;SDS011;58629;48.808;8.820;2022-10-16T07:58:27;1.58;;;1.20;;
70967;SDS011;58629;48.808;8.820;2022-10-16T08:00:53;1.85;;;1.20;;
70967;SDS011;58629;48.808;8.820;2022-10-16T08:03:18;1.40;;;1.10;;
70967;SDS011;58629;48.808;8.820;2022-10-16T08:05:43;2.10;;;1.03;;
70967;SDS011;58629;48.808;8.820;2022-10-16T08:08:11;1.20;;;1.10;;
70967;SDS011;58629;48.808;8.820;2022-10-16T08:10:38;1.15;;;0.98;;
70967;SDS011;58629;48.808;8.820;2022-10-16T08:13:03;1.00;;;0.80;;
70967;SDS011;58629;48.808;8.820;2022-10-16T08:15:29;1.60;;;0.90;;
70967;SDS011;58629;48.808;8.820;2022-10-16T08:17:55;0.83;;;0.80;;
70967;SDS011;58629;48.808;8.820;2022-10-16T08:20:24;1.30;;;1.10;;
70967;SDS011;58629;48.808;8.820;2022-10-16T08:22:49;0.95;;;0.80;;
70967;SDS011;58629;48.808;8.820;2022-10-16T08:25:15;0.90;;;0.80;;
70967;SDS011;58629;48.808;8.820;2022-10-16T08:27:40;1.10;;;0.90;;
70967;SDS011;58629;48.808;8.820;2022-10-16T08:30:05;1.27;;;1.00;;
70967;SDS011;58629;48.808;8.820;2022-10-16T08:32:31;1.10;;;1.00;;
70967;SDS011;58629;48.808;8.820;2022-10-16T08:34:56;1.10;;;1.00;;
70967;SDS011;58629;48.808;8.820;2022-10-16T08:37:22;1.50;;;0.80;;
70967;SDS011;58629;48.808;8.820;2022-10-16T08:39:47;1.00;;;0.90;;
70967;SDS011;58629;48.808;8.820;2022-10-16T08:45:08;0.80;;;0.80;;
70967;SDS011;58629;48.808;8.820;2022-10-16T08:47:47;1.20;;;0.73;;
70967;SDS011;58629;48.808;8.820;2022-10-16T08:50:17;1.38;;;1.00;;
70967;SDS011;58629;48.808;8.820;2022-10-16T08:52:51;0.75;;;0.75;;
70967;SDS011;58629;48.808;8.820;2022-10-16T08:58:11;1.17;;;1.08;;
70967;SDS011;58629;48.808;8.820;2022-10-16T09:00:38;1.10;;;1.00;;
70967;SDS011;58629;48.808;8.820;2022-10-16T09:03:11;1.10;;;1.00;;
70967;SDS011;58629;48.808;8.820;2022-10-16T09:13:31;2.13;;;1.10;;
70967;SDS011;58629;48.808;8.820;2022-10-16T09:18:54;2.00;;;1.10;;
70967;SDS011;58629;48.808;8.820;2022-10-16T09:21:30;1.48;;;1.13;;
70967;SDS011;58629;48.808;8.820;2022-10-16T09:24:06;2.55;;;1.25;;
70967;SDS011;58629;48.808;8.820;2022-10-16T09:26:42;1.87;;;1.00;;
70967;SDS011;58629;48.808;8.820;2022-10-16T09:29:10;3.08;;;1.20;;
70967;SDS011;58629;48.808;8.820;2022-10-16T09:31:37;1.15;;;0.90;;
70967;SDS011;58629;48.808;8.820;2022-10-16T09:34:03;1.90;;;1.37;;
70967;SDS011;58629;48.808;8.820;2022-10-16T09:36:32;1.73;;;1.23;;
70967;SDS011;58629;48.808;8.820;2022-10-16T09:39:05;2.22;;;1.20;;
70967;SDS011;58629;48.808;8.820;2022-10-16T09:41:34;1.23;;;1.10;;
70967;SDS011;58629;48.808;8.820;2022-10-16T09:44:05;1.23;;;1.10;;
70967;SDS011;58629;48.808;8.820;2022-10-16T09:46:41;1.85;;;1.00;;
70967;SDS011;58629;48.808;8.820;2022-10-16T09:49:23;1.70;;;1.10;;
70967;SDS011;58629;48.808;8.820;2022-10-16T09:51:50;3.05;;;1.20;;
70967;SDS011;58629;48.808;8.820;2022-10-16T09:54:16;1.30;;;1.20;;
70967;SDS011;58629;48.808;8.820;2022-10-16T09:56:43;1.73;;;1.10;;
70967;SDS011;58629;48.808;8.820;2022-10-16T09:59:12;1.90;;;1.15;;
70967;SDS011;58629;48.808;8.820;2022-10-16T10:01:51;1.98;;;1.02;;
70967;SDS011;58629;48.808;8.820;2022-10-16T10:04:19;1.02;;;0.93;;
70967;SDS011;58629;48.808;8.820;2022-10-16T10:09:18;2.85;;;1.20;;
70967;SDS011;58629;48.808;8.820;2022-10-16T10:14:31;1.38;;;0.90;;
70967;SDS011;58629;48.808;8.820;2022-10-16T10:19:29;1.50;;;1.10;;
70967;SDS011;58629;48.808;8.820;2022-10-16T10:21:54;2.37;;;0.90;;
70967;SDS011;58629;48.808;8.820;2022-10-16T10:24:19;0.93;;;0.80;;
70967;SDS011;58629;48.808;8.820;2022-10-16T10:26:48;1.00;;;0.80;;
70967;SDS011;58629;48.808;8.820;2022-10-16T10:29:38;1.38;;;0.90;;
70967;SDS011;58629;48.808;8.820;2022-10-16T10:32:30;0.80;;;0.80;;
70967;SDS011;58629;48.808;8.820;2022-10-16T10:35:18;1.60;;;1.00;;
70967;SDS011;58629;48.808;8.820;2022-10-16T10:40:45;0.80;;;0.80;;
70967;SDS011;58629;48.808;8.820;2022-10-16T10:43:34;1.10;;;1.00;;
70967;SDS011;58629;48.808;8.820;2022-10-16T10:46:54;2.15;;;1.00;;
70967;SDS011;58629;48.808;8.820;2022-10-16T11:03:18;1.30;;;1.15;;
70967;SDS011;58629;48.808;8.820;2022-10-16T11:05:47;1.40;;;1.30;;
70967;SDS011;58629;48.808;8.820;2022-10-16T11:08:22;1.20;;;1.10;;
70967;SDS011;58629;48.808;8.820;2022-10-16T11:11:10;2.03;;;1.20;;
70967;SDS011;58629;48.808;8.820;2022-10-16T11:16:48;1.10;;;1.00;;
70967;SDS011;58629;48.808;8.820;2022-10-16T11:22:16;1.42;;;1.27;;
70967;SDS011;58629;48.808;8.820;2022-10-16T11:27:43;2.35;;;1.00;;
70967;SDS011;58629;48.808;8.820;2022-10-16T11:30:14;1.20;;;1.10;;
70967;SDS011;58629;48.808;8.820;2022-10-16T11:35:44;1.85;;;1.20;;
70967;SDS011;58629;48.808;8.820;2022-10-16T11:41:17;2.80;;;1.42;;
70967;SDS011;58629;48.808;8.820;2022-10-16T11:44:02;2.15;;;1.48;;
70967;SDS011;58629;48.808;8.820;2022-10-16T11:47:01;2.00;;;1.43;;
70967;SDS011;58629;48.808;8.820;2022-10-16T11:49:36;2.17;;;1.33;;
70967;SDS011;58629;48.808;8.820;2022-10-16T11:52:19;1.88;;;1.20;;
70967;SDS011;58629;48.808;8.820;2022-10-16T11:57:46;2.55;;;1.30;;
70967;SDS011;58629;48.808;8.820;2022-10-16T12:00:23;1.63;;;1.23;;
70967;SDS011;58629;48.808;8.820;2022-10-16T12:08:17;2.45;;;1.20;;
70967;SDS011;58629;48.808;8.820;2022-10-16T12:10:44;3.33;;;1.40;;
70967;SDS011;58629;48.808;8.820;2022-10-16T12:18:41;3.53;;;1.50;;
70967;SDS011;58629;48.808;8.820;2022-10-16T12:21:11;2.25;;;1.40;;
70967;SDS011;58629;48.808;8.820;2022-10-16T12:23:53;2.37;;;1.43;;
70967;SDS011;58629;48.808;8.820;2022-10-16T12:26:27;1.83;;;1.58;;
70967;SDS011;58629;48.808;8.820;2022-10-16T12:28:56;1.60;;;1.50;;
70967;SDS011;58629;48.808;8.820;2022-10-16T12:31:43;1.48;;;1.35;;
70967;SDS011;58629;48.808;8.820;2022-10-16T12:34:20;1.90;;;1.50;;
70967;SDS011;58629;48.808;8.820;2022-10-16T12:36:48;3.57;;;1.40;;
70967;SDS011;58629;48.808;8.820;2022-10-16T12:39:21;3.45;;;1.70;;
70967;SDS011;58629;48.808;8.820;2022-10-16T12:41:48;1.70;;;1.60;;
70967;SDS011;58629;48.808;8.820;2022-10-16T12:44:26;1.33;;;1.23;;
70967;SDS011;58629;48.808;8.820;2022-10-16T12:46:57;1.30;;;1.20;;
70967;SDS011;58629;48.808;8.820;2022-10-16T12:51:53;1.05;;;1.00;;
70967;SDS011;58629;48.808;8.820;2022-10-16T12:54:21;2.10;;;1.50;;
70967;SDS011;58629;48.808;8.820;2022-10-16T12:57:14;2.42;;;1.40;;
70967;SDS011;58629;48.808;8.820;2022-10-16T13:02:39;1.40;;;1.30;;
70967;SDS011;58629;48.808;8.820;2022-10-16T13:06:42;2.65;;;1.42;;
70967;SDS011;58629;48.808;8.820;2022-10-16T13:14:34;1.30;;;1.20;;
70967;SDS011;58629;48.808;8.820;2022-10-16T13:30:30;2.65;;;1.50;;
70967;SDS011;58629;48.808;8.820;2022-10-16T13:33:10;4.15;;;1.55;;
70967;SDS011;58629;48.808;8.820;2022-10-16T13:35:47;2.00;;;1.40;;
70967;SDS011;58629;48.808;8.820;2022-10-16T13:38:21;2.65;;;1.70;;
70967;SDS011;58629;48.808;8.820;2022-10-16T13:40:55;1.33;;;1.23;;
70967;SDS011;58629;48.808;8.820;2022-10-16T13:43:27;1.75;;;1.60;;
70967;SDS011;58629;48.808;8.820;2022-10-16T13:45:57;3.53;;;1.50;;
70967;SDS011;58629;48.808;8.820;2022-10-16T13:48:25;1.75;;;1.63;;
70967;SDS011;58629;48.808;8.820;2022-10-16T13:51:00;1.60;;;1.50;;
70967;SDS011;58629;48.808;8.820;2022-10-16T13:53:46;1.50;;;1.25;;
70967;SDS011;58629;48.808;8.820;2022-10-16T13:56:19;1.30;;;1.20;;
70967;SDS011;58629;48.808;8.820;2022-10-16T13:58:57;1.40;;;1.20;;
70967;SDS011;58629;48.808;8.820;2022-10-16T14:01:24;1.65;;;1.10;;
70967;SDS011;58629;48.808;8.820;2022-10-16T14:03:53;2.35;;;1.33;;
70967;SDS011;58629;48.808;8.820;2022-10-16T14:06:27;1.40;;;1.20;;
70967;SDS011;58629;48.808;8.820;2022-10-16T14:09:08;1.10;;;1.00;;
70967;SDS011;58629;48.808;8.820;2022-10-16T14:12:16;0.95;;;0.90;;
70967;SDS011;58629;48.808;8.820;2022-10-16T14:14:43;1.13;;;0.90;;
70967;SDS011;58629;48.808;8.820;2022-10-16T14:17:24;1.20;;;1.00;;
70967;SDS011;58629;48.808;8.820;2022-10-16T14:19:53;1.00;;;0.90;;
70967;SDS011;58629;48.808;8.820;2022-10-16T14:22:26;0.82;;;0.82;;
70967;SDS011;58629;48.808;8.820;2022-10-16T14:25:24;0.93;;;0.90;;
70967;SDS011;58629;48.808;8.820;2022-10-16T14:28:00;0.80;;;0.80;;
70967;SDS011;58629;48.808;8.820;2022-10-16T14:30:29;0.70;;;0.70;;
70967;SDS011;58629;48.808;8.820;2022-10-16T14:32:59;1.00;;;0.90;;
70967;SDS011;58629;48.808;8.820;2022-10-16T14:35:30;0.70;;;0.70;;
70967;SDS011;58629;48.808;8.820;2022-10-16T14:37:58;1.48;;;1.17;;
70967;SDS011;58629;48.808;8.820;2022-10-16T14:40:27;1.35;;;1.00;;
70967;SDS011;58629;48.808;8.820;2022-10-16T14:42:55;1.20;;;1.10;;
70967;SDS011;58629;48.808;8.820;2022-10-16T14:45:22;1.10;;;1.00;;
70967;SDS011;58629;48.808;8.820;2022-10-16T14:47:52;1.05;;;0.90;;
70967;SDS011;58629;48.808;8.820;2022-10-16T14:50:20;1.42;;;1.10;;
70967;SDS011;58629;48.808;8.820;2022-10-16T14:52:46;1.30;;;1.20;;
70967;SDS011;58629;48.808;8.820;2022-10-16T14:55:11;1.60;;;1.10;;
70967;SDS011;58629;48.808;8.820;2022-10-16T14:57:37;1.30;;;1.20;;
70967;SDS011;58629;48.808;8.820;2022-10-16T15:00:08;1.13;;;1.00;;
70967;SDS011;58629;48.808;8.820;2022-10-16T15:02:38;2.53;;;1.23;;
70967;SDS011;58629;48.808;8.820;2022-10-16T15:05:10;1.10;;;1.00;;
70967;SDS011;58629;48.808;8.820;2022-10-16T15:07:39;1.40;;;1.30;;
70967;SDS011;58629;48.808;8.820;2022-10-16T15:10:04;1.30;;;1.20;;
70967;SDS011;58629;48.808;8.820;2022-10-16T15:12:30;1.30;;;1.20;;
70967;SDS011;58629;48.808;8.820;2022-10-16T15:14:55;2.70;;;1.23;;
70967;SDS011;58629;48.808;8.820;2022-10-16T15:17:20;1.33;;;1.20;;
70967;SDS011;58629;48.808;8.820;2022-10-16T15:19:46;1.87;;;1.13;;
70967;SDS011;58629;48.808;8.820;2022-10-16T15:22:11;1.30;;;1.20;;
70967;SDS011;58629;48.808;8.820;2022-10-16T15:24:37;1.35;;;1.00;;
70967;SDS011;58629;48.808;8.820;2022-10-16T15:27:02;1.53;;;1.03;;
70967;SDS011;58629;48.808;8.820;2022-10-16T15:29:27;0.83;;;0.83;;
70967;SDS011;58629;48.808;8.820;2022-10-16T15:31:53;1.00;;;0.90;;
70967;SDS011;58629;48.808;8.820;2022-10-16T15:34:18;1.77;;;1.07;;
70967;SDS011;58629;48.808;8.820;2022-10-16T15:36:44;1.10;;;1.00;;
70967;SDS011;58629;48.808;8.820;2022-10-16T15:39:12;1.87;;;1.00;;
70967;SDS011;58629;48.808;8.820;2022-10-16T15:41:39;1.48;;;1.05;;
70967;SDS011;58629;48.808;8.820;2022-10-16T15:44:04;1.05;;;1.00;;
70967;SDS011;58629;48.808;8.820;2022-10-16T15:46:30;0.82;;;0.82;;
70967;SDS011;58629;48.808;8.820;2022-10-16T15:48:56;0.90;;;0.80;;
70967;SDS011;58629;48.808;8.820;2022-10-16T15:51:23;0.80;;;0.80;;
70967;SDS011;58629;48.808;8.820;2022-10-16T15:53:50;1.10;;;1.00;;
70967;SDS011;58629;48.808;8.820;2022-10-16T15:56:16;0.75;;;0.70;;
70967;SDS011;58629;48.808;8.820;2022-10-16T15:58:42;1.73;;;1.00;;
70967;SDS011;58629;48.808;8.820;2022-10-16T16:01:08;1.07;;;0.97;;
70967;SDS011;58629;48.808;8.820;2022-10-16T16:03:35;1.33;;;1.05;;
70967;SDS011;58629;48.808;8.820;2022-10-16T16:06:08;0.95;;;0.90;;
70967;SDS011;58629;48.808;8.820;2022-10-16T16:08:34;1.13;;;0.88;;
70967;SDS011;58629;48.808;8.820;2022-10-16T16:11:04;2.50;;;1.20;;
70967;SDS011;58629;48.808;8.820;2022-10-16T16:13:39;2.45;;;1.40;;
70967;SDS011;58629;48.808;8.820;2022-10-16T16:16:06;1.50;;;1.30;;
70967;SDS011;58629;48.808;8.820;2022-10-16T16:18:36;1.75;;;1.10;;
70967;SDS011;58629;48.808;8.820;2022-10-16T16:21:02;1.92;;;1.30;;
70967;SDS011;58629;48.808;8.820;2022-10-16T16:23:28;1.85;;;1.40;;
70967;SDS011;58629;48.808;8.820;2022-10-16T16:28:50;1.98;;;1.60;;
70967;SDS011;58629;48.808;8.820;2022-10-16T16:31:16;2.00;;;1.60;;
70967;SDS011;58629;48.808;8.820;2022-10-16T16:33:41;1.67;;;1.40;;
70967;SDS011;58629;48.808;8.820;2022-10-16T16:36:07;1.50;;;1.40;;
70967;SDS011;58629;48.808;8.820;2022-10-16T16:38:33;2.33;;;1.20;;
70967;SDS011;58629;48.808;8.820;2022-10-16T16:40:58;1.58;;;1.33;;
70967;SDS011;58629;48.808;8.820;2022-10-16T16:43:24;1.37;;;1.20;;
70967;SDS011;58629;48.808;8.820;2022-10-16T16:45:51;2.05;;;1.30;;